Terminal Aerodrome Forecast
Issued by NWS

Home | Current Version | Previous Version | Text Only | Print | Product List | Glossary On
Versions: 1 2 3 4 5 6 7 8 9 10 11 12 13 14 15
019
FTUS43 KAPX 232330
TAFAPN
TAF
KAPN 232330Z 2400/2424 25004KT P6SM BKN035
     FM240100 25004KT P6SM SCT035
     FM241100 20008KT P6SM BKN070 WS020/23035KT
     FM241400 20012G20KT P6SM BKN110 WS020/23045KT
     FM242300 21012G20KT P6SM BKN110=

USA.gov is the U.S. government's official web portal to all federal, state and local government web resources and services.